createdAt,value
2023-04-29T00:01:33.145Z,11.93
2023-04-29T00:03:59.904Z,11.63
2023-04-29T00:06:28.885Z,11.97
2023-04-29T00:08:55.967Z,13.40
2023-04-29T00:11:23.066Z,11.30
2023-04-29T00:13:50.151Z,11.77
2023-04-29T00:16:17.560Z,11.57
2023-04-29T00:18:44.233Z,11.43
2023-04-29T00:21:11.529Z,10.57
2023-04-29T00:23:38.610Z,11.77
2023-04-29T00:26:05.361Z,12.00
2023-04-29T00:28:32.444Z,11.47
2023-04-29T00:30:59.098Z,13.57
2023-04-29T00:33:27.110Z,12.47
2023-04-29T00:35:54.183Z,12.83
2023-04-29T00:38:21.329Z,11.33
2023-04-29T00:40:48.823Z,12.70
2023-04-29T00:43:16.060Z,12.47
2023-04-29T00:45:44.240Z,17.23
2023-04-29T00:48:11.433Z,13.13
2023-04-29T00:50:38.337Z,13.27
2023-04-29T00:53:05.545Z,13.70
2023-04-29T00:55:33.669Z,12.73
2023-04-29T00:58:02.604Z,10.97
2023-04-29T01:00:29.741Z,10.83
2023-04-29T01:02:57.639Z,9.23
2023-04-29T01:05:25.247Z,11.30
2023-04-29T01:07:55.150Z,9.83
2023-04-29T01:10:29.664Z,22.07
2023-04-29T01:13:04.824Z,12.47
2023-04-29T01:15:36.102Z,11.50
2023-04-29T01:18:12.058Z,14.00
2023-04-29T01:20:39.654Z,13.87
2023-04-29T01:23:06.716Z,15.97
2023-04-29T01:25:33.890Z,16.07
2023-04-29T01:28:00.936Z,15.57
2023-04-29T01:30:33.488Z,21.47
2023-04-29T01:33:09.007Z,19.57
2023-04-29T01:35:46.403Z,21.27
2023-04-29T01:38:22.850Z,20.03
2023-04-29T01:41:19.490Z,21.53
2023-04-29T01:43:50.078Z,26.20
2023-04-29T01:46:19.388Z,22.30
2023-04-29T01:48:46.578Z,25.67
2023-04-29T01:51:13.734Z,26.23
2023-04-29T01:53:40.922Z,27.90
2023-04-29T01:56:10.743Z,28.60
2023-04-29T01:58:37.838Z,31.67
2023-04-29T02:01:04.990Z,29.87
2023-04-29T02:03:32.397Z,33.30
2023-04-29T02:05:59.082Z,35.67
2023-04-29T02:08:26.224Z,31.97
2023-04-29T02:10:57.321Z,34.43
2023-04-29T02:13:24.166Z,31.80
2023-04-29T02:15:51.278Z,39.77
2023-04-29T02:18:18.368Z,38.23
2023-04-29T02:20:45.831Z,36.63
2023-04-29T02:23:13.679Z,40.13
2023-04-29T02:25:40.826Z,44.43
2023-04-29T02:28:08.138Z,41.43
2023-04-29T02:30:34.937Z,51.90
2023-04-29T02:33:02.089Z,56.53
2023-04-29T02:35:29.280Z,52.23
2023-04-29T02:37:56.324Z,56.80
2023-04-29T02:40:25.581Z,53.90
2023-04-29T02:42:52.248Z,51.07
2023-04-29T02:45:19.323Z,55.97
2023-04-29T02:47:46.427Z,53.97
2023-04-29T02:50:13.511Z,51.37
2023-04-29T02:52:42.009Z,51.73
2023-04-29T02:55:09.470Z,53.13
2023-04-29T02:57:36.210Z,55.23
2023-04-29T03:00:04.101Z,58.70
2023-04-29T03:02:31.375Z,57.30
2023-04-29T03:04:58.581Z,54.57
2023-04-29T03:07:25.398Z,61.93
2023-04-29T03:09:52.391Z,59.40
2023-04-29T03:12:19.571Z,65.40
2023-04-29T03:14:46.282Z,66.23
2023-04-29T03:17:13.599Z,65.57
2023-04-29T03:19:40.680Z,66.07
2023-04-29T03:22:09.806Z,67.83
2023-04-29T03:24:36.886Z,66.50
2023-04-29T03:27:04.550Z,77.37
2023-04-29T03:29:31.922Z,67.43
2023-04-29T03:31:58.992Z,73.77
2023-04-29T03:34:26.121Z,71.60
2023-04-29T03:36:53.243Z,80.03
2023-04-29T03:39:20.511Z,74.57
2023-04-29T03:41:48.112Z,76.43
2023-04-29T03:44:14.805Z,78.63
2023-04-29T03:46:42.013Z,80.17
2023-04-29T03:49:09.384Z,78.40
2023-04-29T03:51:36.132Z,79.43
2023-04-29T03:54:03.192Z,75.10
2023-04-29T03:56:30.281Z,81.57
2023-04-29T03:58:57.355Z,74.50
2023-04-29T04:01:24.009Z,77.07
2023-04-29T04:03:51.237Z,78.53
2023-04-29T04:06:17.999Z,68.93
2023-04-29T04:08:45.117Z,63.30
2023-04-29T04:11:15.082Z,67.37
2023-04-29T04:13:43.203Z,60.80
2023-04-29T04:16:13.680Z,70.60
2023-04-29T04:18:41.043Z,68.57
2023-04-29T04:21:12.051Z,65.97
2023-04-29T04:23:44.039Z,63.87
2023-04-29T04:26:11.225Z,65.83
2023-04-29T04:28:38.292Z,62.97
2023-04-29T04:31:05.551Z,62.40
2023-04-29T04:33:32.995Z,56.27
2023-04-29T04:35:59.669Z,61.87
2023-04-29T04:38:27.760Z,59.00
2023-04-29T04:40:54.980Z,59.87
2023-04-29T04:43:21.647Z,57.90
2023-04-29T04:45:48.767Z,61.60
2023-04-29T04:48:16.059Z,59.77
2023-04-29T04:50:43.296Z,60.80
2023-04-29T04:53:10.498Z,57.77
2023-04-29T04:55:37.870Z,55.90
2023-04-29T04:58:04.948Z,65.57
2023-04-29T05:00:32.004Z,60.83
2023-04-29T05:02:59.180Z,58.03
2023-04-29T05:05:25.931Z,56.23
2023-04-29T05:07:52.570Z,51.97
2023-04-29T05:10:19.634Z,54.30
2023-04-29T05:12:46.300Z,44.43
2023-04-29T05:15:14.948Z,58.73
2023-04-29T05:17:42.099Z,49.17
2023-04-29T05:20:09.612Z,44.40
2023-04-29T05:22:37.083Z,46.63
2023-04-29T05:25:03.808Z,44.67
2023-04-29T05:27:30.942Z,43.93
2023-04-29T05:29:57.834Z,42.20
2023-04-29T05:32:24.978Z,41.60
2023-04-29T05:34:51.943Z,43.40
2023-04-29T05:37:19.053Z,35.23
2023-04-29T05:39:46.128Z,40.40
2023-04-29T05:42:12.756Z,39.13
2023-04-29T05:44:40.073Z,38.63
2023-04-29T05:47:07.155Z,38.80
2023-04-29T05:49:33.859Z,39.77
2023-04-29T05:52:04.160Z,34.20
2023-04-29T05:54:31.349Z,34.87
2023-04-29T05:56:58.570Z,33.60
2023-04-29T05:59:26.147Z,30.60
2023-04-29T06:01:53.260Z,35.07
2023-04-29T06:04:20.848Z,30.40
2023-04-29T06:06:48.307Z,32.50
2023-04-29T06:09:27.119Z,30.67
2023-04-29T06:11:54.861Z,29.43
2023-04-29T06:14:22.041Z,31.83
2023-04-29T06:16:49.503Z,26.90
2023-04-29T06:19:16.595Z,28.50
2023-04-29T06:21:43.919Z,29.63
2023-04-29T06:24:10.590Z,24.77
2023-04-29T06:26:37.891Z,26.83
2023-04-29T06:29:04.771Z,26.83
2023-04-29T06:31:32.407Z,30.30
2023-04-29T06:33:59.527Z,26.43
2023-04-29T06:36:27.133Z,27.03
2023-04-29T06:38:54.091Z,29.73
2023-04-29T06:41:20.770Z,25.87
2023-04-29T06:43:48.989Z,26.20
2023-04-29T06:46:16.428Z,28.33
2023-04-29T06:48:43.617Z,26.87
2023-04-29T06:51:11.193Z,25.93
2023-04-29T06:53:37.900Z,28.07
2023-04-29T06:56:05.682Z,26.00
2023-04-29T06:58:32.799Z,25.67
2023-04-29T07:00:59.517Z,30.87
2023-04-29T07:03:26.777Z,25.20
2023-04-29T07:05:53.927Z,24.60
2023-04-29T07:08:21.120Z,24.50
2023-04-29T07:10:57.948Z,24.77
2023-04-29T07:13:25.340Z,25.47
2023-04-29T07:15:52.426Z,25.07
2023-04-29T07:18:19.605Z,26.70
2023-04-29T07:20:47.883Z,25.83
2023-04-29T07:23:15.042Z,24.93
2023-04-29T07:25:42.287Z,27.10
2023-04-29T07:28:09.530Z,23.53
2023-04-29T07:30:36.526Z,27.07
2023-04-29T07:33:04.454Z,25.77
2023-04-29T07:35:31.558Z,24.80
2023-04-29T07:37:58.746Z,23.17
2023-04-29T07:40:25.490Z,26.30
2023-04-29T07:42:52.649Z,25.53
2023-04-29T07:45:19.443Z,24.07
2023-04-29T07:47:46.200Z,20.33
2023-04-29T07:50:13.150Z,23.70
2023-04-29T07:52:39.873Z,30.63
2023-04-29T07:55:07.137Z,25.70
2023-04-29T07:57:33.785Z,26.80
2023-04-29T08:00:00.421Z,28.33
2023-04-29T08:02:27.820Z,27.00
2023-04-29T08:04:56.148Z,24.87
2023-04-29T08:07:23.684Z,21.80
2023-04-29T08:09:50.435Z,23.63
2023-04-29T08:12:17.497Z,25.70
2023-04-29T08:14:44.550Z,28.10
2023-04-29T08:17:11.629Z,26.13
2023-04-29T08:19:38.716Z,26.50
2023-04-29T08:22:05.827Z,26.17
2023-04-29T08:24:34.953Z,22.10
2023-04-29T08:27:03.463Z,26.03
2023-04-29T08:29:33.076Z,24.00
2023-04-29T08:32:00.012Z,25.07
2023-04-29T08:34:27.764Z,23.90
2023-04-29T08:36:54.845Z,23.20
2023-04-29T08:39:21.507Z,24.17
2023-04-29T08:41:51.112Z,24.73
2023-04-29T08:44:18.399Z,25.53
2023-04-29T08:46:46.630Z,22.47
2023-04-29T08:49:14.605Z,27.50
2023-04-29T08:51:41.812Z,24.60
2023-04-29T08:54:08.635Z,21.73
2023-04-29T08:56:35.868Z,22.33
2023-04-29T08:59:04.310Z,20.70
2023-04-29T09:01:31.880Z,20.17
2023-04-29T09:04:04.704Z,19.27
2023-04-29T09:06:33.390Z,19.20
2023-04-29T09:09:02.030Z,19.13
2023-04-29T09:11:29.350Z,17.10
2023-04-29T09:14:01.518Z,21.40
2023-04-29T09:16:29.196Z,21.90
2023-04-29T09:18:56.852Z,18.90
2023-04-29T09:21:26.119Z,19.67
2023-04-29T09:24:03.532Z,17.73
2023-04-29T09:26:42.905Z,23.37
2023-04-29T09:29:11.130Z,23.00
2023-04-29T09:31:39.491Z,21.70
2023-04-29T09:34:06.838Z,19.90
2023-04-29T09:36:47.727Z,22.37
2023-04-29T09:39:19.847Z,23.77
2023-04-29T09:41:52.710Z,27.73
2023-04-29T09:44:24.753Z,32.57
2023-04-29T09:47:10.660Z,36.23
2023-04-29T09:49:41.035Z,33.80
2023-04-29T09:52:09.777Z,32.67
2023-04-29T09:54:38.832Z,29.10
2023-04-29T09:57:07.417Z,28.93
2023-04-29T09:59:40.234Z,30.27
2023-04-29T10:02:18.215Z,27.13
2023-04-29T10:04:47.200Z,28.53
2023-04-29T10:07:18.015Z,28.73
2023-04-29T10:09:47.375Z,31.73
2023-04-29T10:12:19.841Z,30.33
2023-04-29T10:15:03.727Z,28.63
2023-04-29T10:17:43.602Z,30.37
2023-04-29T10:20:19.518Z,31.93
2023-04-29T10:22:48.654Z,30.63
2023-04-29T10:25:20.585Z,36.87
2023-04-29T10:27:48.974Z,38.70
2023-04-29T10:30:18.754Z,32.50
2023-04-29T10:32:50.897Z,34.37
2023-04-29T10:35:20.582Z,34.27
2023-04-29T10:37:51.201Z,32.13
2023-04-29T10:40:36.570Z,31.73
2023-04-29T10:43:04.653Z,33.77
2023-04-29T10:45:35.888Z,29.23
2023-04-29T10:48:02.862Z,29.43
2023-04-29T10:50:30.563Z,39.97
2023-04-29T10:52:58.217Z,49.50
2023-04-29T10:55:25.729Z,49.53
2023-04-29T10:57:57.009Z,56.37
2023-04-29T11:00:27.169Z,60.23
2023-04-29T11:02:54.724Z,63.43
2023-04-29T11:05:37.647Z,63.60
2023-04-29T11:08:16.280Z,62.30
2023-04-29T11:10:43.969Z,67.43
2023-04-29T11:13:27.937Z,66.77
2023-04-29T11:16:08.060Z,67.57
2023-04-29T11:18:36.540Z,68.67
2023-04-29T11:21:06.060Z,73.40
2023-04-29T11:23:52.198Z,79.20
2023-04-29T11:26:21.779Z,81.73
2023-04-29T11:28:49.026Z,84.50
2023-04-29T11:31:16.146Z,81.50
2023-04-29T11:33:43.238Z,77.20
2023-04-29T11:36:11.406Z,73.00
2023-04-29T11:38:41.226Z,74.90
2023-04-29T11:41:08.327Z,73.67
2023-04-29T11:43:35.016Z,71.90
2023-04-29T11:46:01.877Z,68.83
2023-04-29T11:48:30.298Z,63.90
2023-04-29T11:50:59.188Z,55.77
2023-04-29T11:53:29.409Z,61.10
2023-04-29T11:55:56.701Z,62.90
2023-04-29T11:58:25.143Z,69.23
2023-04-29T12:00:52.256Z,68.30
2023-04-29T12:03:21.669Z,63.83
2023-04-29T12:05:51.704Z,76.97
2023-04-29T12:08:29.248Z,65.10
2023-04-29T12:10:58.159Z,61.90
2023-04-29T12:13:27.464Z,65.27
2023-04-29T12:15:54.538Z,64.53
2023-04-29T12:18:23.365Z,62.93
2023-04-29T12:20:55.931Z,54.37
2023-04-29T12:23:24.280Z,55.63
2023-04-29T12:25:57.345Z,53.53
2023-04-29T12:28:24.987Z,47.70
2023-04-29T12:30:54.246Z,44.23
2023-04-29T12:33:23.172Z,44.27
2023-04-29T12:35:51.326Z,42.33
2023-04-29T12:38:29.961Z,39.50
2023-04-29T12:41:01.290Z,42.17
2023-04-29T12:43:28.960Z,36.10
2023-04-29T12:46:02.387Z,42.77
2023-04-29T12:48:33.934Z,36.73
2023-04-29T12:51:02.145Z,38.40
2023-04-29T12:53:32.538Z,34.57
2023-04-29T12:55:59.983Z,28.67
2023-04-29T12:58:30.506Z,42.73
2023-04-29T13:00:57.799Z,39.57
2023-04-29T13:03:24.940Z,34.20
2023-04-29T13:05:54.614Z,37.57
2023-04-29T13:08:22.026Z,36.03
2023-04-29T13:10:49.646Z,34.93
2023-04-29T13:13:16.354Z,37.07
2023-04-29T13:15:43.081Z,34.23
2023-04-29T13:18:10.214Z,42.43
2023-04-29T13:20:41.396Z,35.53
2023-04-29T13:23:09.269Z,32.93
2023-04-29T13:25:36.037Z,32.60
2023-04-29T13:28:03.101Z,31.67
2023-04-29T13:30:29.989Z,35.93
2023-04-29T13:33:04.036Z,34.23
2023-04-29T13:35:38.338Z,35.17
2023-04-29T13:38:05.465Z,49.33
2023-04-29T13:40:37.376Z,29.57
2023-04-29T13:43:09.296Z,30.87
2023-04-29T13:45:39.918Z,37.00
2023-04-29T13:48:26.213Z,36.63
2023-04-29T13:51:34.290Z,33.50
2023-04-29T13:57:11.063Z,33.43
2023-04-29T14:04:01.349Z,29.47
2023-04-29T14:06:29.256Z,32.90
2023-04-29T14:08:55.994Z,31.03
2023-04-29T14:11:23.078Z,32.53
2023-04-29T14:13:50.074Z,31.50
2023-04-29T14:16:17.353Z,28.03
2023-04-29T14:18:44.112Z,30.67
2023-04-29T14:21:11.666Z,31.60
2023-04-29T14:23:38.331Z,30.67
2023-04-29T14:26:26.573Z,32.10
2023-04-29T14:28:57.537Z,33.30
2023-04-29T14:31:29.316Z,32.03
2023-04-29T14:33:59.454Z,30.63
2023-04-29T14:36:26.816Z,34.53
2023-04-29T14:38:54.038Z,28.57
2023-04-29T14:41:23.424Z,28.80
2023-04-29T14:43:50.707Z,25.20
2023-04-29T14:46:17.644Z,29.10
2023-04-29T14:48:44.828Z,24.83
2023-04-29T14:51:12.229Z,28.80
2023-04-29T14:53:39.413Z,27.87
2023-04-29T14:56:07.089Z,27.10
2023-04-29T14:58:33.909Z,26.57
2023-04-29T15:01:01.178Z,23.17
2023-04-29T15:03:28.344Z,22.63
2023-04-29T15:05:56.229Z,24.70
2023-04-29T15:08:23.351Z,22.97
2023-04-29T15:10:50.147Z,21.93
2023-04-29T15:13:17.318Z,20.03
2023-04-29T15:15:43.986Z,20.40
2023-04-29T15:18:11.196Z,22.13
2023-04-29T15:20:38.460Z,46.53
2023-04-29T15:23:06.647Z,27.40
2023-04-29T15:25:34.625Z,26.90
2023-04-29T15:28:02.252Z,22.27
2023-04-29T15:30:29.374Z,22.07
2023-04-29T15:32:56.694Z,27.97
2023-04-29T15:35:23.833Z,21.50
2023-04-29T15:37:50.574Z,25.33
2023-04-29T15:40:17.677Z,22.30
2023-04-29T15:42:44.878Z,27.63
2023-04-29T15:45:11.872Z,23.30
2023-04-29T15:47:39.258Z,24.90
2023-04-29T15:50:07.001Z,22.40
2023-04-29T15:52:34.146Z,21.93
2023-04-29T15:55:01.207Z,24.67
2023-04-29T15:57:27.910Z,36.00
2023-04-29T15:59:55.234Z,21.67
2023-04-29T16:02:22.288Z,22.00
2023-04-29T16:04:49.027Z,20.83
2023-04-29T16:07:16.068Z,23.77
2023-04-29T16:09:42.765Z,25.90
2023-04-29T16:12:12.330Z,23.50
2023-04-29T16:14:39.443Z,47.87
2023-04-29T16:17:06.295Z,25.50
2023-04-29T16:19:35.931Z,40.67
2023-04-29T16:22:03.862Z,30.47
2023-04-29T16:24:30.586Z,23.33
2023-04-29T16:26:58.862Z,26.00
2023-04-29T16:29:26.060Z,27.40
2023-04-29T16:31:52.984Z,24.13
2023-04-29T16:34:20.054Z,29.80
2023-04-29T16:36:47.266Z,23.33
2023-04-29T16:39:14.365Z,26.37
2023-04-29T16:41:41.370Z,24.20
2023-04-29T16:44:08.539Z,44.83
2023-04-29T16:46:36.249Z,24.33
2023-04-29T16:49:03.555Z,28.63
2023-04-29T16:51:30.279Z,28.43
2023-04-29T16:53:57.352Z,24.80
2023-04-29T16:56:24.062Z,22.40
2023-04-29T16:58:51.066Z,20.50
2023-04-29T17:01:19.750Z,25.30
2023-04-29T17:03:47.862Z,20.83
2023-04-29T17:06:15.808Z,21.80
2023-04-29T17:08:43.056Z,22.70
2023-04-29T17:11:10.390Z,20.93
2023-04-29T17:13:37.539Z,23.40
2023-04-29T17:16:05.089Z,25.40
2023-04-29T17:18:32.266Z,22.80
2023-04-29T17:20:59.685Z,21.73
2023-04-29T17:23:27.482Z,23.53
2023-04-29T17:25:55.423Z,23.63
2023-04-29T17:28:23.182Z,22.30
2023-04-29T17:30:50.022Z,16.93
2023-04-29T17:33:17.512Z,20.07
2023-04-29T17:35:45.176Z,20.50
2023-04-29T17:38:12.083Z,23.17
2023-04-29T17:40:38.922Z,25.50
2023-04-29T17:43:05.624Z,18.60
2023-04-29T17:45:32.424Z,24.33
2023-04-29T17:47:59.195Z,19.40
2023-04-29T17:50:26.115Z,20.03
2023-04-29T17:52:52.793Z,19.40
2023-04-29T17:55:20.017Z,21.83
2023-04-29T17:57:46.706Z,20.87
2023-04-29T18:00:14.206Z,16.73
2023-04-29T18:02:41.185Z,25.47
2023-04-29T18:05:08.463Z,17.90
2023-04-29T18:07:35.677Z,18.53
2023-04-29T18:10:02.853Z,20.60
2023-04-29T18:12:29.936Z,15.43
2023-04-29T18:14:57.208Z,20.30
2023-04-29T18:17:24.005Z,18.60
2023-04-29T18:19:51.287Z,18.30
2023-04-29T18:22:18.490Z,17.30
2023-04-29T18:24:46.663Z,17.80
2023-04-29T18:27:13.815Z,16.80
2023-04-29T18:29:40.552Z,21.60
2023-04-29T18:32:08.231Z,22.13
2023-04-29T18:34:35.656Z,20.87
2023-04-29T18:37:02.319Z,21.87
2023-04-29T18:39:29.099Z,19.27
2023-04-29T18:41:56.242Z,19.90
2023-04-29T18:44:23.020Z,20.87
2023-04-29T18:46:50.861Z,24.53
2023-04-29T18:49:17.939Z,24.20
2023-04-29T18:51:46.640Z,29.53
2023-04-29T18:54:18.061Z,26.67
2023-04-29T18:56:46.949Z,27.67
2023-04-29T18:59:19.284Z,25.97
2023-04-29T19:01:47.216Z,28.00
2023-04-29T19:04:14.284Z,26.43
2023-04-29T19:06:42.030Z,28.53
2023-04-29T19:09:09.314Z,29.77
2023-04-29T19:11:37.507Z,27.10
2023-04-29T19:14:04.228Z,26.17
2023-04-29T19:16:31.046Z,26.50
2023-04-29T19:18:57.799Z,26.80
2023-04-29T19:21:24.902Z,26.37
2023-04-29T19:23:52.223Z,28.67
2023-04-29T19:26:18.887Z,26.47
2023-04-29T19:28:46.476Z,28.40
2023-04-29T19:31:13.777Z,28.20
2023-04-29T19:33:41.012Z,29.60
2023-04-29T19:36:08.121Z,26.63
2023-04-29T19:38:35.302Z,27.17
2023-04-29T19:41:02.672Z,31.50
2023-04-29T19:43:29.786Z,24.53
2023-04-29T19:45:56.903Z,26.17
2023-04-29T19:48:23.786Z,28.40
2023-04-29T19:50:51.037Z,28.03
2023-04-29T19:53:18.158Z,24.00
2023-04-29T19:55:45.488Z,24.27
2023-04-29T19:58:12.291Z,26.23
2023-04-29T20:00:39.792Z,24.87
2023-04-29T20:03:06.590Z,25.23
2023-04-29T20:05:34.185Z,24.10
2023-04-29T20:08:00.894Z,29.07
2023-04-29T20:10:29.952Z,28.07
2023-04-29T20:12:57.085Z,22.83
2023-04-29T20:15:24.168Z,25.13
2023-04-29T20:17:50.944Z,25.13
2023-04-29T20:20:18.217Z,28.23
2023-04-29T20:22:45.347Z,28.77
2023-04-29T20:25:12.500Z,29.10
2023-04-29T20:27:40.269Z,30.23
2023-04-29T20:30:09.759Z,27.30
2023-04-29T20:32:37.862Z,29.43
2023-04-29T20:35:05.652Z,28.37
2023-04-29T20:37:32.343Z,28.20
2023-04-29T20:39:59.508Z,29.87
2023-04-29T20:42:27.021Z,27.83
2023-04-29T20:44:53.793Z,29.20
2023-04-29T20:47:21.323Z,26.33
2023-04-29T20:49:49.520Z,26.63
2023-04-29T20:52:16.452Z,29.90
2023-04-29T20:54:43.579Z,26.67
2023-04-29T20:57:10.303Z,26.13
2023-04-29T20:59:37.447Z,28.93
2023-04-29T21:02:04.882Z,27.27
2023-04-29T21:04:32.031Z,28.00
2023-04-29T21:06:58.809Z,28.57
2023-04-29T21:09:25.887Z,30.87
2023-04-29T21:11:52.976Z,27.73
2023-04-29T21:14:19.635Z,28.67
2023-04-29T21:16:46.814Z,27.97
2023-04-29T21:19:13.906Z,31.97
2023-04-29T21:21:41.000Z,34.70
2023-04-29T21:24:08.143Z,32.67
2023-04-29T21:26:35.373Z,36.93
2023-04-29T21:29:03.475Z,34.10
2023-04-29T21:31:31.351Z,33.30
2023-04-29T21:33:58.340Z,34.00
2023-04-29T21:36:25.402Z,32.53
2023-04-29T21:38:54.278Z,36.63
2023-04-29T21:41:26.520Z,36.93
2023-04-29T21:43:54.654Z,36.43
2023-04-29T21:46:21.925Z,32.10
2023-04-29T21:48:49.074Z,36.70
2023-04-29T21:51:18.830Z,36.23
2023-04-29T21:53:46.189Z,38.23
2023-04-29T21:56:12.883Z,37.10
2023-04-29T21:58:41.439Z,40.57
2023-04-29T22:01:26.694Z,39.77
2023-04-29T22:03:54.932Z,35.57
2023-04-29T22:06:22.345Z,36.27
2023-04-29T22:08:49.191Z,35.93
2023-04-29T22:11:16.034Z,35.10
2023-04-29T22:13:45.128Z,38.07
2023-04-29T22:16:12.405Z,34.27
2023-04-29T22:18:39.570Z,34.10
2023-04-29T22:21:07.242Z,31.73
2023-04-29T22:23:34.166Z,36.90
2023-04-29T22:26:01.260Z,41.23
2023-04-29T22:28:27.962Z,41.83
2023-04-29T22:30:54.762Z,44.80
2023-04-29T22:33:21.856Z,39.93
2023-04-29T22:35:48.915Z,38.20
2023-04-29T22:38:15.990Z,40.40
2023-04-29T22:40:43.040Z,47.27
2023-04-29T22:43:10.176Z,45.73
2023-04-29T22:45:37.361Z,41.73
2023-04-29T22:48:04.633Z,36.60
2023-04-29T22:50:31.323Z,36.00
2023-04-29T22:52:57.973Z,36.50
2023-04-29T22:55:24.665Z,40.03
2023-04-29T22:57:52.043Z,36.37
2023-04-29T23:00:19.111Z,38.90
2023-04-29T23:02:46.358Z,39.17
2023-04-29T23:05:13.471Z,41.00
2023-04-29T23:07:41.129Z,42.33
2023-04-29T23:10:08.437Z,37.87
2023-04-29T23:12:35.600Z,38.53
2023-04-29T23:15:02.716Z,38.47
2023-04-29T23:17:29.864Z,36.70
2023-04-29T23:19:56.681Z,38.20
2023-04-29T23:22:23.969Z,34.10
2023-04-29T23:24:51.166Z,34.60
2023-04-29T23:27:18.278Z,35.87
2023-04-29T23:29:45.338Z,34.80
2023-04-29T23:32:12.393Z,38.53
2023-04-29T23:34:39.196Z,39.30
2023-04-29T23:37:06.319Z,39.73
2023-04-29T23:39:33.012Z,35.33
2023-04-29T23:42:00.105Z,37.77
2023-04-29T23:44:27.202Z,36.90
2023-04-29T23:46:53.918Z,35.97
2023-04-29T23:49:21.044Z,36.30
2023-04-29T23:51:50.879Z,34.20
2023-04-29T23:54:18.032Z,35.73
2023-04-29T23:56:45.172Z,37.23
2023-04-29T23:59:11.859Z,36.53
